sensor_id;sensor_type;location;lat;lon;timestamp;P1;durP1;ratioP1;P2;durP2;ratioP2
43817;SDS011;29868;47.360;18.984;2022-08-19T00:01:45;11.07;;;6.88;;
43817;SDS011;29868;47.360;18.984;2022-08-19T00:04:12;12.20;;;7.60;;
43817;SDS011;29868;47.360;18.984;2022-08-19T00:06:40;10.85;;;7.57;;
43817;SDS011;29868;47.360;18.984;2022-08-19T00:09:08;10.73;;;6.88;;
43817;SDS011;29868;47.360;18.984;2022-08-19T00:11:35;10.32;;;7.68;;
43817;SDS011;29868;47.360;18.984;2022-08-19T00:14:03;9.15;;;7.53;;
43817;SDS011;29868;47.360;18.984;2022-08-19T00:16:31;9.52;;;7.75;;
43817;SDS011;29868;47.360;18.984;2022-08-19T00:18:57;10.68;;;7.82;;
43817;SDS011;29868;47.360;18.984;2022-08-19T00:21:23;15.23;;;8.15;;
43817;SDS011;29868;47.360;18.984;2022-08-19T00:23:49;16.67;;;8.35;;
43817;SDS011;29868;47.360;18.984;2022-08-19T00:26:15;12.77;;;7.95;;
43817;SDS011;29868;47.360;18.984;2022-08-19T00:28:40;11.32;;;8.25;;
43817;SDS011;29868;47.360;18.984;2022-08-19T00:31:07;9.32;;;7.88;;
43817;SDS011;29868;47.360;18.984;2022-08-19T00:33:33;9.45;;;7.70;;
43817;SDS011;29868;47.360;18.984;2022-08-19T00:36:00;12.43;;;7.55;;
43817;SDS011;29868;47.360;18.984;2022-08-19T00:38:26;9.38;;;7.32;;
43817;SDS011;29868;47.360;18.984;2022-08-19T00:40:52;11.05;;;8.23;;
43817;SDS011;29868;47.360;18.984;2022-08-19T00:43:19;11.68;;;7.78;;
43817;SDS011;29868;47.360;18.984;2022-08-19T00:45:46;10.38;;;8.13;;
43817;SDS011;29868;47.360;18.984;2022-08-19T00:48:13;11.68;;;8.50;;
43817;SDS011;29868;47.360;18.984;2022-08-19T00:50:39;10.90;;;8.13;;
43817;SDS011;29868;47.360;18.984;2022-08-19T00:53:08;10.90;;;8.38;;
43817;SDS011;29868;47.360;18.984;2022-08-19T00:55:40;13.30;;;8.23;;
43817;SDS011;29868;47.360;18.984;2022-08-19T00:58:08;10.48;;;8.18;;
43817;SDS011;29868;47.360;18.984;2022-08-19T01:00:38;10.07;;;8.07;;
43817;SDS011;29868;47.360;18.984;2022-08-19T01:03:08;13.13;;;8.55;;
43817;SDS011;29868;47.360;18.984;2022-08-19T01:05:36;10.48;;;8.13;;
43817;SDS011;29868;47.360;18.984;2022-08-19T01:08:04;12.45;;;8.80;;
43817;SDS011;29868;47.360;18.984;2022-08-19T01:10:32;11.20;;;8.48;;
43817;SDS011;29868;47.360;18.984;2022-08-19T01:13:08;13.18;;;7.95;;
43817;SDS011;29868;47.360;18.984;2022-08-19T01:15:45;11.30;;;8.25;;
43817;SDS011;29868;47.360;18.984;2022-08-19T01:18:15;11.68;;;8.35;;
43817;SDS011;29868;47.360;18.984;2022-08-19T01:20:43;10.82;;;8.27;;
43817;SDS011;29868;47.360;18.984;2022-08-19T01:23:09;10.95;;;8.40;;
43817;SDS011;29868;47.360;18.984;2022-08-19T01:25:35;9.98;;;8.25;;
43817;SDS011;29868;47.360;18.984;2022-08-19T01:28:06;11.93;;;7.38;;
43817;SDS011;29868;47.360;18.984;2022-08-19T01:30:33;10.00;;;7.60;;
43817;SDS011;29868;47.360;18.984;2022-08-19T01:33:00;10.82;;;7.82;;
43817;SDS011;29868;47.360;18.984;2022-08-19T01:35:27;9.82;;;8.15;;
43817;SDS011;29868;47.360;18.984;2022-08-19T01:37:55;11.77;;;8.40;;
43817;SDS011;29868;47.360;18.984;2022-08-19T01:40:24;9.98;;;7.50;;
43817;SDS011;29868;47.360;18.984;2022-08-19T01:42:52;12.43;;;7.90;;
43817;SDS011;29868;47.360;18.984;2022-08-19T01:45:19;12.55;;;7.55;;
43817;SDS011;29868;47.360;18.984;2022-08-19T01:47:46;12.95;;;7.90;;
43817;SDS011;29868;47.360;18.984;2022-08-19T01:50:12;11.00;;;7.90;;
43817;SDS011;29868;47.360;18.984;2022-08-19T01:52:41;9.63;;;7.93;;
43817;SDS011;29868;47.360;18.984;2022-08-19T01:55:10;11.13;;;7.55;;
43817;SDS011;29868;47.360;18.984;2022-08-19T01:57:38;11.18;;;7.65;;
43817;SDS011;29868;47.360;18.984;2022-08-19T02:00:07;16.67;;;8.00;;
43817;SDS011;29868;47.360;18.984;2022-08-19T02:02:34;11.52;;;7.68;;
43817;SDS011;29868;47.360;18.984;2022-08-19T02:04:59;10.65;;;7.60;;
43817;SDS011;29868;47.360;18.984;2022-08-19T02:07:25;13.48;;;8.05;;
43817;SDS011;29868;47.360;18.984;2022-08-19T02:09:50;13.27;;;7.80;;
43817;SDS011;29868;47.360;18.984;2022-08-19T02:12:16;10.85;;;7.43;;
43817;SDS011;29868;47.360;18.984;2022-08-19T02:14:41;9.55;;;7.63;;
43817;SDS011;29868;47.360;18.984;2022-08-19T02:17:06;10.30;;;7.85;;
43817;SDS011;29868;47.360;18.984;2022-08-19T02:19:32;11.18;;;7.90;;
43817;SDS011;29868;47.360;18.984;2022-08-19T02:21:58;12.15;;;7.53;;
43817;SDS011;29868;47.360;18.984;2022-08-19T02:24:24;10.05;;;7.72;;
43817;SDS011;29868;47.360;18.984;2022-08-19T02:26:50;10.45;;;7.53;;
43817;SDS011;29868;47.360;18.984;2022-08-19T02:29:16;13.00;;;7.55;;
43817;SDS011;29868;47.360;18.984;2022-08-19T02:31:42;11.52;;;7.97;;
43817;SDS011;29868;47.360;18.984;2022-08-19T02:34:07;11.48;;;7.97;;
43817;SDS011;29868;47.360;18.984;2022-08-19T02:36:33;12.55;;;7.90;;
43817;SDS011;29868;47.360;18.984;2022-08-19T02:38:59;10.15;;;7.85;;
43817;SDS011;29868;47.360;18.984;2022-08-19T02:41:26;11.50;;;7.97;;
43817;SDS011;29868;47.360;18.984;2022-08-19T02:43:56;10.38;;;7.38;;
43817;SDS011;29868;47.360;18.984;2022-08-19T02:46:27;11.00;;;7.70;;
43817;SDS011;29868;47.360;18.984;2022-08-19T02:48:58;11.27;;;7.97;;
43817;SDS011;29868;47.360;18.984;2022-08-19T02:51:35;10.13;;;7.80;;
43817;SDS011;29868;47.360;18.984;2022-08-19T02:54:05;10.35;;;7.90;;
43817;SDS011;29868;47.360;18.984;2022-08-19T02:56:33;12.20;;;8.07;;
43817;SDS011;29868;47.360;18.984;2022-08-19T02:59:01;13.93;;;8.30;;
43817;SDS011;29868;47.360;18.984;2022-08-19T03:01:28;12.00;;;7.68;;
43817;SDS011;29868;47.360;18.984;2022-08-19T03:03:58;11.75;;;8.57;;
43817;SDS011;29868;47.360;18.984;2022-08-19T03:06:25;10.40;;;8.63;;
43817;SDS011;29868;47.360;18.984;2022-08-19T03:08:52;11.57;;;8.00;;
43817;SDS011;29868;47.360;18.984;2022-08-19T03:11:25;11.23;;;8.20;;
43817;SDS011;29868;47.360;18.984;2022-08-19T03:13:52;12.10;;;8.60;;
43817;SDS011;29868;47.360;18.984;2022-08-19T03:16:18;12.27;;;8.00;;
43817;SDS011;29868;47.360;18.984;2022-08-19T03:18:44;10.38;;;8.52;;
43817;SDS011;29868;47.360;18.984;2022-08-19T03:21:14;10.48;;;7.70;;
43817;SDS011;29868;47.360;18.984;2022-08-19T03:23:44;14.30;;;8.77;;
43817;SDS011;29868;47.360;18.984;2022-08-19T03:26:09;11.35;;;8.48;;
43817;SDS011;29868;47.360;18.984;2022-08-19T03:28:35;10.43;;;8.00;;
43817;SDS011;29868;47.360;18.984;2022-08-19T03:31:05;12.15;;;8.10;;
43817;SDS011;29868;47.360;18.984;2022-08-19T03:33:34;11.13;;;8.50;;
43817;SDS011;29868;47.360;18.984;2022-08-19T03:36:04;11.23;;;8.25;;
43817;SDS011;29868;47.360;18.984;2022-08-19T03:38:43;9.98;;;7.80;;
43817;SDS011;29868;47.360;18.984;2022-08-19T03:41:11;13.15;;;8.23;;
43817;SDS011;29868;47.360;18.984;2022-08-19T03:43:40;11.55;;;8.57;;
43817;SDS011;29868;47.360;18.984;2022-08-19T03:46:10;13.20;;;8.50;;
43817;SDS011;29868;47.360;18.984;2022-08-19T03:48:40;12.40;;;8.43;;
43817;SDS011;29868;47.360;18.984;2022-08-19T03:51:07;10.75;;;8.27;;
43817;SDS011;29868;47.360;18.984;2022-08-19T03:53:40;11.90;;;8.93;;
43817;SDS011;29868;47.360;18.984;2022-08-19T03:56:07;12.57;;;8.43;;
43817;SDS011;29868;47.360;18.984;2022-08-19T03:58:34;10.45;;;8.45;;
43817;SDS011;29868;47.360;18.984;2022-08-19T04:00:59;10.63;;;8.10;;
43817;SDS011;29868;47.360;18.984;2022-08-19T04:03:25;10.85;;;8.60;;
43817;SDS011;29868;47.360;18.984;2022-08-19T04:05:52;13.52;;;8.48;;
43817;SDS011;29868;47.360;18.984;2022-08-19T04:08:18;13.75;;;8.55;;
43817;SDS011;29868;47.360;18.984;2022-08-19T04:10:45;13.00;;;8.38;;
43817;SDS011;29868;47.360;18.984;2022-08-19T04:13:12;11.98;;;8.45;;
43817;SDS011;29868;47.360;18.984;2022-08-19T04:15:41;12.02;;;8.82;;
43817;SDS011;29868;47.360;18.984;2022-08-19T04:18:09;11.35;;;8.38;;
43817;SDS011;29868;47.360;18.984;2022-08-19T04:20:44;14.85;;;8.80;;
43817;SDS011;29868;47.360;18.984;2022-08-19T04:23:12;10.52;;;7.90;;
43817;SDS011;29868;47.360;18.984;2022-08-19T04:25:39;14.20;;;8.30;;
43817;SDS011;29868;47.360;18.984;2022-08-19T04:28:06;12.55;;;8.38;;
43817;SDS011;29868;47.360;18.984;2022-08-19T04:30:41;13.80;;;8.13;;
43817;SDS011;29868;47.360;18.984;2022-08-19T04:35:35;15.80;;;8.98;;
43817;SDS011;29868;47.360;18.984;2022-08-19T04:38:05;15.07;;;8.60;;
43817;SDS011;29868;47.360;18.984;2022-08-19T04:40:31;13.23;;;8.75;;
43817;SDS011;29868;47.360;18.984;2022-08-19T04:43:15;14.90;;;8.07;;
43817;SDS011;29868;47.360;18.984;2022-08-19T04:45:40;10.82;;;8.20;;
43817;SDS011;29868;47.360;18.984;2022-08-19T04:48:08;10.57;;;8.15;;
43817;SDS011;29868;47.360;18.984;2022-08-19T04:50:34;12.63;;;8.23;;
43817;SDS011;29868;47.360;18.984;2022-08-19T04:52:59;10.80;;;8.07;;
43817;SDS011;29868;47.360;18.984;2022-08-19T04:55:25;14.65;;;8.18;;
43817;SDS011;29868;47.360;18.984;2022-08-19T04:57:50;10.55;;;7.80;;
43817;SDS011;29868;47.360;18.984;2022-08-19T05:00:16;12.10;;;8.20;;
43817;SDS011;29868;47.360;18.984;2022-08-19T05:02:41;14.82;;;7.80;;
43817;SDS011;29868;47.360;18.984;2022-08-19T05:05:07;13.30;;;7.60;;
43817;SDS011;29868;47.360;18.984;2022-08-19T05:07:33;13.80;;;8.35;;
43817;SDS011;29868;47.360;18.984;2022-08-19T05:09:59;12.80;;;8.00;;
43817;SDS011;29868;47.360;18.984;2022-08-19T05:12:24;9.73;;;7.40;;
43817;SDS011;29868;47.360;18.984;2022-08-19T05:14:50;11.38;;;7.75;;
43817;SDS011;29868;47.360;18.984;2022-08-19T05:17:16;10.32;;;7.60;;
43817;SDS011;29868;47.360;18.984;2022-08-19T05:19:42;11.45;;;7.72;;
43817;SDS011;29868;47.360;18.984;2022-08-19T05:22:26;8.85;;;7.65;;
43817;SDS011;29868;47.360;18.984;2022-08-19T05:24:57;9.77;;;7.32;;
43817;SDS011;29868;47.360;18.984;2022-08-19T05:27:23;11.65;;;7.55;;
43817;SDS011;29868;47.360;18.984;2022-08-19T05:29:49;11.65;;;7.70;;
43817;SDS011;29868;47.360;18.984;2022-08-19T05:32:15;10.80;;;7.65;;
43817;SDS011;29868;47.360;18.984;2022-08-19T05:34:40;15.10;;;7.55;;
43817;SDS011;29868;47.360;18.984;2022-08-19T05:37:05;13.00;;;7.95;;
43817;SDS011;29868;47.360;18.984;2022-08-19T05:39:33;9.38;;;7.45;;
43817;SDS011;29868;47.360;18.984;2022-08-19T05:42:04;12.07;;;6.75;;
43817;SDS011;29868;47.360;18.984;2022-08-19T05:44:33;12.38;;;7.65;;
43817;SDS011;29868;47.360;18.984;2022-08-19T05:47:00;11.30;;;7.05;;
43817;SDS011;29868;47.360;18.984;2022-08-19T05:49:27;10.50;;;6.78;;
43817;SDS011;29868;47.360;18.984;2022-08-19T05:51:54;10.35;;;7.05;;
43817;SDS011;29868;47.360;18.984;2022-08-19T05:54:21;9.95;;;6.88;;
43817;SDS011;29868;47.360;18.984;2022-08-19T05:56:48;9.85;;;6.65;;
43817;SDS011;29868;47.360;18.984;2022-08-19T05:59:15;8.48;;;6.70;;
43817;SDS011;29868;47.360;18.984;2022-08-19T06:01:43;10.38;;;6.85;;
43817;SDS011;29868;47.360;18.984;2022-08-19T06:04:11;14.32;;;6.88;;
43817;SDS011;29868;47.360;18.984;2022-08-19T06:06:38;9.63;;;6.47;;
43817;SDS011;29868;47.360;18.984;2022-08-19T06:09:05;10.80;;;6.75;;
43817;SDS011;29868;47.360;18.984;2022-08-19T06:11:39;9.98;;;6.60;;
43817;SDS011;29868;47.360;18.984;2022-08-19T06:14:09;10.73;;;6.55;;
43817;SDS011;29868;47.360;18.984;2022-08-19T06:16:37;9.75;;;6.07;;
43817;SDS011;29868;47.360;18.984;2022-08-19T06:19:06;10.25;;;6.55;;
43817;SDS011;29868;47.360;18.984;2022-08-19T06:21:34;10.90;;;6.78;;
43817;SDS011;29868;47.360;18.984;2022-08-19T06:24:02;11.70;;;6.70;;
43817;SDS011;29868;47.360;18.984;2022-08-19T06:26:29;10.63;;;6.18;;
43817;SDS011;29868;47.360;18.984;2022-08-19T06:28:56;10.63;;;6.13;;
43817;SDS011;29868;47.360;18.984;2022-08-19T06:31:23;8.85;;;6.22;;
43817;SDS011;29868;47.360;18.984;2022-08-19T06:33:52;10.05;;;6.25;;
43817;SDS011;29868;47.360;18.984;2022-08-19T06:36:21;7.70;;;5.82;;
43817;SDS011;29868;47.360;18.984;2022-08-19T06:38:56;8.93;;;6.80;;
43817;SDS011;29868;47.360;18.984;2022-08-19T06:41:22;8.30;;;6.15;;
43817;SDS011;29868;47.360;18.984;2022-08-19T06:43:48;9.10;;;6.15;;
43817;SDS011;29868;47.360;18.984;2022-08-19T06:46:14;8.25;;;6.10;;
43817;SDS011;29868;47.360;18.984;2022-08-19T06:48:43;10.15;;;6.35;;
43817;SDS011;29868;47.360;18.984;2022-08-19T06:51:08;9.77;;;6.43;;
43817;SDS011;29868;47.360;18.984;2022-08-19T06:53:34;8.65;;;6.10;;
43817;SDS011;29868;47.360;18.984;2022-08-19T06:56:00;11.48;;;6.43;;
43817;SDS011;29868;47.360;18.984;2022-08-19T06:58:27;9.00;;;5.88;;
43817;SDS011;29868;47.360;18.984;2022-08-19T07:01:02;10.80;;;5.65;;
43817;SDS011;29868;47.360;18.984;2022-08-19T07:03:29;10.45;;;6.32;;
43817;SDS011;29868;47.360;18.984;2022-08-19T07:06:09;8.02;;;5.95;;
43817;SDS011;29868;47.360;18.984;2022-08-19T07:08:38;10.25;;;6.15;;
43817;SDS011;29868;47.360;18.984;2022-08-19T07:11:08;7.95;;;5.82;;
43817;SDS011;29868;47.360;18.984;2022-08-19T07:13:34;7.50;;;5.25;;
43817;SDS011;29868;47.360;18.984;2022-08-19T07:16:05;9.27;;;5.80;;
43817;SDS011;29868;47.360;18.984;2022-08-19T07:18:30;9.38;;;5.65;;
43817;SDS011;29868;47.360;18.984;2022-08-19T07:21:06;10.80;;;6.03;;
43817;SDS011;29868;47.360;18.984;2022-08-19T07:23:32;8.82;;;5.50;;
43817;SDS011;29868;47.360;18.984;2022-08-19T07:25:57;9.25;;;5.30;;
43817;SDS011;29868;47.360;18.984;2022-08-19T07:28:28;8.73;;;6.00;;
43817;SDS011;29868;47.360;18.984;2022-08-19T07:30:54;8.48;;;5.50;;
43817;SDS011;29868;47.360;18.984;2022-08-19T07:33:19;8.27;;;5.60;;
43817;SDS011;29868;47.360;18.984;2022-08-19T07:35:45;9.70;;;6.05;;
43817;SDS011;29868;47.360;18.984;2022-08-19T07:38:10;7.07;;;5.40;;
43817;SDS011;29868;47.360;18.984;2022-08-19T07:40:35;9.13;;;6.13;;
43817;SDS011;29868;47.360;18.984;2022-08-19T07:43:01;10.32;;;5.60;;
43817;SDS011;29868;47.360;18.984;2022-08-19T07:45:26;7.38;;;5.65;;
43817;SDS011;29868;47.360;18.984;2022-08-19T07:47:53;10.50;;;5.90;;
43817;SDS011;29868;47.360;18.984;2022-08-19T07:50:19;7.00;;;5.70;;
43817;SDS011;29868;47.360;18.984;2022-08-19T07:52:45;7.45;;;6.00;;
43817;SDS011;29868;47.360;18.984;2022-08-19T07:55:11;9.85;;;5.82;;
43817;SDS011;29868;47.360;18.984;2022-08-19T07:57:37;6.68;;;5.35;;
43817;SDS011;29868;47.360;18.984;2022-08-19T08:00:04;11.98;;;6.20;;
43817;SDS011;29868;47.360;18.984;2022-08-19T08:02:31;7.78;;;5.53;;
43817;SDS011;29868;47.360;18.984;2022-08-19T08:04:56;9.48;;;5.80;;
43817;SDS011;29868;47.360;18.984;2022-08-19T08:07:40;8.02;;;5.72;;
43817;SDS011;29868;47.360;18.984;2022-08-19T08:10:24;11.80;;;6.32;;
43817;SDS011;29868;47.360;18.984;2022-08-19T08:12:50;6.25;;;5.32;;
43817;SDS011;29868;47.360;18.984;2022-08-19T08:15:16;9.40;;;5.60;;
43817;SDS011;29868;47.360;18.984;2022-08-19T08:17:42;7.28;;;6.00;;
43817;SDS011;29868;47.360;18.984;2022-08-19T08:20:08;11.95;;;5.82;;
43817;SDS011;29868;47.360;18.984;2022-08-19T08:22:34;6.53;;;5.18;;
43817;SDS011;29868;47.360;18.984;2022-08-19T08:25:19;7.60;;;5.43;;
43817;SDS011;29868;47.360;18.984;2022-08-19T08:27:48;9.15;;;5.80;;
43817;SDS011;29868;47.360;18.984;2022-08-19T08:30:24;8.63;;;5.38;;
43817;SDS011;29868;47.360;18.984;2022-08-19T08:32:50;8.05;;;5.65;;
43817;SDS011;29868;47.360;18.984;2022-08-19T08:35:17;9.88;;;5.32;;
43817;SDS011;29868;47.360;18.984;2022-08-19T08:37:45;9.52;;;5.55;;
43817;SDS011;29868;47.360;18.984;2022-08-19T08:42:56;8.23;;;5.60;;
43817;SDS011;29868;47.360;18.984;2022-08-19T08:45:26;9.20;;;5.70;;
43817;SDS011;29868;47.360;18.984;2022-08-19T08:47:54;10.05;;;5.93;;
43817;SDS011;29868;47.360;18.984;2022-08-19T08:50:29;6.85;;;5.30;;
43817;SDS011;29868;47.360;18.984;2022-08-19T08:53:01;7.78;;;5.43;;
43817;SDS011;29868;47.360;18.984;2022-08-19T08:55:30;7.80;;;5.50;;
43817;SDS011;29868;47.360;18.984;2022-08-19T08:57:59;8.82;;;5.45;;
43817;SDS011;29868;47.360;18.984;2022-08-19T09:00:30;9.02;;;5.18;;
43817;SDS011;29868;47.360;18.984;2022-08-19T09:03:01;7.07;;;5.40;;
43817;SDS011;29868;47.360;18.984;2022-08-19T09:06:11;12.00;;;5.78;;
43817;SDS011;29868;47.360;18.984;2022-08-19T09:08:37;9.27;;;5.15;;
43817;SDS011;29868;47.360;18.984;2022-08-19T09:16:20;8.60;;;5.13;;
43817;SDS011;29868;47.360;18.984;2022-08-19T09:18:55;9.25;;;5.63;;
43817;SDS011;29868;47.360;18.984;2022-08-19T09:21:24;7.25;;;5.38;;
43817;SDS011;29868;47.360;18.984;2022-08-19T09:23:50;8.23;;;5.15;;
43817;SDS011;29868;47.360;18.984;2022-08-19T09:26:17;7.80;;;5.35;;
43817;SDS011;29868;47.360;18.984;2022-08-19T09:28:45;8.85;;;5.15;;
43817;SDS011;29868;47.360;18.984;2022-08-19T09:31:21;7.53;;;5.38;;
43817;SDS011;29868;47.360;18.984;2022-08-19T09:33:48;9.55;;;5.45;;
43817;SDS011;29868;47.360;18.984;2022-08-19T09:36:16;9.05;;;5.05;;
43817;SDS011;29868;47.360;18.984;2022-08-19T09:38:43;7.55;;;5.38;;
43817;SDS011;29868;47.360;18.984;2022-08-19T09:41:11;10.32;;;5.10;;
43817;SDS011;29868;47.360;18.984;2022-08-19T09:43:39;6.70;;;5.13;;
43817;SDS011;29868;47.360;18.984;2022-08-19T09:46:05;10.95;;;5.47;;
43817;SDS011;29868;47.360;18.984;2022-08-19T09:48:34;6.75;;;4.88;;
43817;SDS011;29868;47.360;18.984;2022-08-19T09:51:07;8.02;;;5.32;;
43817;SDS011;29868;47.360;18.984;2022-08-19T09:53:34;6.40;;;4.95;;
43817;SDS011;29868;47.360;18.984;2022-08-19T09:56:00;9.60;;;5.75;;
43817;SDS011;29868;47.360;18.984;2022-08-19T09:58:26;8.02;;;5.00;;
43817;SDS011;29868;47.360;18.984;2022-08-19T10:00:55;9.80;;;5.25;;
43817;SDS011;29868;47.360;18.984;2022-08-19T10:03:22;6.88;;;5.30;;
43817;SDS011;29868;47.360;18.984;2022-08-19T10:05:48;7.13;;;5.28;;
43817;SDS011;29868;47.360;18.984;2022-08-19T10:08:18;8.05;;;5.40;;
43817;SDS011;29868;47.360;18.984;2022-08-19T10:10:49;7.22;;;5.45;;
43817;SDS011;29868;47.360;18.984;2022-08-19T10:13:16;11.73;;;5.30;;
43817;SDS011;29868;47.360;18.984;2022-08-19T10:15:46;9.32;;;5.15;;
43817;SDS011;29868;47.360;18.984;2022-08-19T10:18:15;7.57;;;5.72;;
43817;SDS011;29868;47.360;18.984;2022-08-19T10:20:42;6.70;;;5.75;;
43817;SDS011;29868;47.360;18.984;2022-08-19T10:23:08;8.13;;;5.38;;
43817;SDS011;29868;47.360;18.984;2022-08-19T10:25:34;7.55;;;5.47;;
43817;SDS011;29868;47.360;18.984;2022-08-19T10:27:59;8.48;;;5.57;;
43817;SDS011;29868;47.360;18.984;2022-08-19T10:30:25;10.93;;;7.60;;
43817;SDS011;29868;47.360;18.984;2022-08-19T10:32:50;9.73;;;7.90;;
43817;SDS011;29868;47.360;18.984;2022-08-19T10:35:16;11.02;;;7.65;;
43817;SDS011;29868;47.360;18.984;2022-08-19T10:37:42;10.30;;;7.30;;
43817;SDS011;29868;47.360;18.984;2022-08-19T10:40:07;9.45;;;7.68;;
43817;SDS011;29868;47.360;18.984;2022-08-19T10:42:35;10.52;;;7.68;;
43817;SDS011;29868;47.360;18.984;2022-08-19T10:45:01;10.38;;;8.25;;
43817;SDS011;29868;47.360;18.984;2022-08-19T10:47:27;13.43;;;12.23;;
43817;SDS011;29868;47.360;18.984;2022-08-19T10:49:53;15.68;;;12.40;;
43817;SDS011;29868;47.360;18.984;2022-08-19T10:52:42;17.20;;;11.60;;
43817;SDS011;29868;47.360;18.984;2022-08-19T10:55:10;13.07;;;11.52;;
43817;SDS011;29868;47.360;18.984;2022-08-19T10:57:55;14.30;;;12.80;;
43817;SDS011;29868;47.360;18.984;2022-08-19T11:00:21;15.52;;;13.85;;
43817;SDS011;29868;47.360;18.984;2022-08-19T11:02:47;15.85;;;14.27;;
43817;SDS011;29868;47.360;18.984;2022-08-19T11:05:13;17.90;;;16.02;;
43817;SDS011;29868;47.360;18.984;2022-08-19T11:07:39;15.90;;;14.30;;
43817;SDS011;29868;47.360;18.984;2022-08-19T11:10:06;15.70;;;14.07;;
43817;SDS011;29868;47.360;18.984;2022-08-19T11:12:35;13.30;;;11.30;;
43817;SDS011;29868;47.360;18.984;2022-08-19T11:15:03;15.80;;;10.52;;
43817;SDS011;29868;47.360;18.984;2022-08-19T11:17:29;14.43;;;10.90;;
43817;SDS011;29868;47.360;18.984;2022-08-19T11:19:55;13.15;;;10.30;;
43817;SDS011;29868;47.360;18.984;2022-08-19T11:22:21;12.05;;;10.40;;
43817;SDS011;29868;47.360;18.984;2022-08-19T11:24:46;12.80;;;11.48;;
43817;SDS011;29868;47.360;18.984;2022-08-19T11:27:11;13.93;;;12.52;;
43817;SDS011;29868;47.360;18.984;2022-08-19T11:29:37;16.95;;;13.48;;
43817;SDS011;29868;47.360;18.984;2022-08-19T11:32:05;15.57;;;12.40;;
43817;SDS011;29868;47.360;18.984;2022-08-19T11:34:32;12.50;;;10.57;;
43817;SDS011;29868;47.360;18.984;2022-08-19T11:36:58;11.75;;;10.35;;
43817;SDS011;29868;47.360;18.984;2022-08-19T11:39:25;16.70;;;13.25;;
43817;SDS011;29868;47.360;18.984;2022-08-19T11:41:51;15.52;;;12.55;;
43817;SDS011;29868;47.360;18.984;2022-08-19T11:44:17;13.60;;;12.20;;
43817;SDS011;29868;47.360;18.984;2022-08-19T11:46:43;15.40;;;11.80;;
43817;SDS011;29868;47.360;18.984;2022-08-19T11:49:11;15.18;;;11.18;;
43817;SDS011;29868;47.360;18.984;2022-08-19T11:51:41;18.20;;;13.45;;
43817;SDS011;29868;47.360;18.984;2022-08-19T11:54:08;19.75;;;13.50;;
43817;SDS011;29868;47.360;18.984;2022-08-19T11:56:34;15.77;;;12.73;;
43817;SDS011;29868;47.360;18.984;2022-08-19T11:59:01;12.18;;;10.90;;
43817;SDS011;29868;47.360;18.984;2022-08-19T12:01:27;14.70;;;10.85;;
43817;SDS011;29868;47.360;18.984;2022-08-19T12:03:53;12.55;;;10.88;;
43817;SDS011;29868;47.360;18.984;2022-08-19T12:06:24;12.43;;;9.73;;
43817;SDS011;29868;47.360;18.984;2022-08-19T12:08:57;10.65;;;8.77;;
43817;SDS011;29868;47.360;18.984;2022-08-19T12:11:25;13.73;;;8.02;;
43817;SDS011;29868;47.360;18.984;2022-08-19T12:13:51;9.80;;;5.22;;
43817;SDS011;29868;47.360;18.984;2022-08-19T12:16:19;7.95;;;4.50;;
43817;SDS011;29868;47.360;18.984;2022-08-19T12:18:46;6.78;;;4.53;;
43817;SDS011;29868;47.360;18.984;2022-08-19T12:21:13;11.23;;;5.50;;
43817;SDS011;29868;47.360;18.984;2022-08-19T12:23:40;6.72;;;4.85;;
43817;SDS011;29868;47.360;18.984;2022-08-19T12:26:06;7.13;;;5.07;;
43817;SDS011;29868;47.360;18.984;2022-08-19T12:28:33;9.13;;;5.10;;
43817;SDS011;29868;47.360;18.984;2022-08-19T12:30:59;8.30;;;4.60;;
43817;SDS011;29868;47.360;18.984;2022-08-19T12:33:24;7.70;;;3.95;;
43817;SDS011;29868;47.360;18.984;2022-08-19T12:35:52;9.60;;;4.45;;
43817;SDS011;29868;47.360;18.984;2022-08-19T12:38:18;5.82;;;3.80;;
43817;SDS011;29868;47.360;18.984;2022-08-19T12:40:47;6.70;;;4.00;;
43817;SDS011;29868;47.360;18.984;2022-08-19T12:43:13;9.82;;;4.40;;
43817;SDS011;29868;47.360;18.984;2022-08-19T12:45:40;7.53;;;3.92;;
43817;SDS011;29868;47.360;18.984;2022-08-19T12:48:07;7.22;;;4.00;;
43817;SDS011;29868;47.360;18.984;2022-08-19T12:50:33;7.13;;;3.90;;
43817;SDS011;29868;47.360;18.984;2022-08-19T12:52:59;8.65;;;4.65;;
43817;SDS011;29868;47.360;18.984;2022-08-19T12:55:24;6.43;;;4.10;;
43817;SDS011;29868;47.360;18.984;2022-08-19T12:57:50;10.38;;;4.40;;
43817;SDS011;29868;47.360;18.984;2022-08-19T13:00:16;9.13;;;3.80;;
43817;SDS011;29868;47.360;18.984;2022-08-19T13:02:46;8.55;;;3.90;;
43817;SDS011;29868;47.360;18.984;2022-08-19T13:05:15;9.02;;;4.00;;
43817;SDS011;29868;47.360;18.984;2022-08-19T13:07:44;10.30;;;4.03;;
43817;SDS011;29868;47.360;18.984;2022-08-19T13:10:11;8.52;;;3.80;;
43817;SDS011;29868;47.360;18.984;2022-08-19T13:12:42;7.28;;;3.80;;
43817;SDS011;29868;47.360;18.984;2022-08-19T13:15:09;9.05;;;3.90;;
43817;SDS011;29868;47.360;18.984;2022-08-19T13:17:36;9.55;;;4.22;;
43817;SDS011;29868;47.360;18.984;2022-08-19T13:20:03;7.85;;;4.05;;
43817;SDS011;29868;47.360;18.984;2022-08-19T13:22:30;25.27;;;5.03;;
43817;SDS011;29868;47.360;18.984;2022-08-19T13:24:56;13.52;;;4.18;;
43817;SDS011;29868;47.360;18.984;2022-08-19T13:27:21;10.60;;;4.40;;
43817;SDS011;29868;47.360;18.984;2022-08-19T13:29:47;14.00;;;4.53;;
43817;SDS011;29868;47.360;18.984;2022-08-19T13:32:31;8.25;;;4.10;;
43817;SDS011;29868;47.360;18.984;2022-08-19T13:35:15;13.73;;;5.30;;
43817;SDS011;29868;47.360;18.984;2022-08-19T13:37:41;11.27;;;4.45;;
43817;SDS011;29868;47.360;18.984;2022-08-19T13:40:17;10.68;;;4.63;;
43817;SDS011;29868;47.360;18.984;2022-08-19T13:42:48;12.20;;;4.75;;
43817;SDS011;29868;47.360;18.984;2022-08-19T13:45:15;14.82;;;4.70;;
43817;SDS011;29868;47.360;18.984;2022-08-19T13:47:45;11.00;;;4.55;;
43817;SDS011;29868;47.360;18.984;2022-08-19T13:50:18;19.55;;;4.10;;
43817;SDS011;29868;47.360;18.984;2022-08-19T13:52:46;9.68;;;3.72;;
43817;SDS011;29868;47.360;18.984;2022-08-19T13:55:12;13.15;;;4.15;;
43817;SDS011;29868;47.360;18.984;2022-08-19T13:57:38;13.45;;;4.15;;
43817;SDS011;29868;47.360;18.984;2022-08-19T14:00:06;12.93;;;3.75;;
43817;SDS011;29868;47.360;18.984;2022-08-19T14:02:35;13.82;;;4.65;;
43817;SDS011;29868;47.360;18.984;2022-08-19T14:05:02;10.82;;;3.75;;
43817;SDS011;29868;47.360;18.984;2022-08-19T14:07:28;8.65;;;3.70;;
43817;SDS011;29868;47.360;18.984;2022-08-19T14:09:53;13.52;;;4.18;;
43817;SDS011;29868;47.360;18.984;2022-08-19T14:12:22;8.30;;;4.22;;
43817;SDS011;29868;47.360;18.984;2022-08-19T14:14:47;12.05;;;4.05;;
43817;SDS011;29868;47.360;18.984;2022-08-19T14:17:14;6.70;;;3.63;;
43817;SDS011;29868;47.360;18.984;2022-08-19T14:19:40;6.53;;;3.40;;
43817;SDS011;29868;47.360;18.984;2022-08-19T14:22:06;6.38;;;3.40;;
43817;SDS011;29868;47.360;18.984;2022-08-19T14:24:31;7.95;;;3.40;;
43817;SDS011;29868;47.360;18.984;2022-08-19T14:26:59;12.15;;;4.10;;
43817;SDS011;29868;47.360;18.984;2022-08-19T14:29:25;10.48;;;3.67;;
43817;SDS011;29868;47.360;18.984;2022-08-19T14:31:53;12.98;;;3.88;;
43817;SDS011;29868;47.360;18.984;2022-08-19T14:34:19;11.65;;;3.92;;
43817;SDS011;29868;47.360;18.984;2022-08-19T14:36:44;10.43;;;3.25;;
43817;SDS011;29868;47.360;18.984;2022-08-19T14:39:10;13.68;;;2.83;;
43817;SDS011;29868;47.360;18.984;2022-08-19T14:41:36;11.43;;;3.22;;